Appleton, Idaho
Current Conditions -  °F | °C
As of 8:53 AM on Wednesday 22 Oct 2014 (Local Time) from KJER Reporting Station
Clear Clear  
Wind Chill: 31°   Ceiling: Unl
Heat Index: 38°   Visibility: 10mi
Dew Point: 30°   Wind: 9mph
Humidity: 73%   Direction: 80°E
Pressure: 30.16"   Gusts: NA
Location:  42.7238°N, 114.338°W
Report Text: KJER 221453Z AUTO 08008KT 10SM CLR 03/M01 A3016 RMK AO2 SLP219 T00331011 53008
Loading
Personal Weather Stations






























Interactive Weather Map
Tropical Storm Tracking
New forecast layout! Learn more

10-Day Weather Forecast

Advertisements
Track Severe Weather on mobile